ROMMA est une association bénévole à but non lucratif. Votre soutien est indispensable : ADHERER à ROMMA ou FAIRE un DON

Trept - (38, Isère)

Plateau de Crémieu (265 m)   Longitude: 5° 19' 27" E   Latitude: 45° 41' 15"N Station partenaire n°94
 

Détail journalier du     <<     >>

Température Precipitation Humidité Pression Vent Dir Rafale Dir. rafale
Heure (°C) (mm) (%) (hPa) (km/h) (km/h)
01:00 17.507710152OSO8NE
02:00 16.907910152OSO10NO
03:00 16.107810162O8SO
04:00 15.407910161OSO5OSO
05:00 14.808010161OSO6ONO
06:00 14.508010162O11O
07:00 14.308010162ONO10O
08:00 13.708210171ONO6ONO
09:00 14.707910171ONO10O
10:00 15.507410173N11NO
11:00 17.206810173NO13NO
12:00 18.406410175NO15O
13:00 21.305410175O16NO
14:00 21.305410176ONO19NO
15:00 22.805310176NE24ONO
16:00 21.305810176NE19N
17:00 22.705510165NNE21NNE
18:00 22.305510167NE27NE
19:00 21.105810166NNE19NNE
20:00 20.106010173NNE15NE
21:00 19.205810172N10NNE
22:00 18.006110173NNE10NNE
23:00 16.8064101805NNO
minuit 15.906610181N13O

Graphique du 18-09-2019

 

Serveur OMMA